»·PEaware :: LXJ1015 KTEX-KVNY

LXJ1015 :: KTEX-KVNY

FLIGHT INFORMATION

Flight Status: Arrived
Operator: Unknown
More flights by this operator :: More flights under this callsign
Pilot: Ryan D. (24752)
Aircraft: BOMBARDIER BD-700 GLOBAL EXPRESS
(GLEX)
More flights by this aircraft type
Origin: KTEX Telluride Regl
United States
Destination: KVNY Van Nuys
United States
More flights between these airports :: More routes between these airports
Route: ETL DVC KD42Q ROOLL Q94 WELUM JANNY5
File this flight plan on PilotEdge
Remarks:
Altitude:
(Current/Filed)
43,000ft
Speed:
(Current/Filed)
350kts
Departed: 04-Nov-23 04:47 PM
Arrived: 04-Nov-23 06:19 PM
Distance/Time
Traveled:
560nm/1:32
Distance/Time
To Go:
Arrived

Flight Plot

Page will automatically refresh every two minutes.

Flight plan parsing failed; only flown route is shown


Map Options




Map Legend


Flown Route
Filed Route
Departure Airport
Arrival Airport
Navaid (VOR, NDB)
Fix

Horizontal Profiles

Position Reports

Time Latitude Longitude Heading Altitude Ground
Speed
04-Nov-23 16:33 37.954353 -107.902845 102 9052ft 0kts
04-Nov-23 16:34 37.954353 -107.902845 102 9052ft 0kts
04-Nov-23 16:35 37.954353 -107.902845 102 9052ft 0kts
04-Nov-23 16:36 37.954353 -107.902845 102 9052ft 0kts
04-Nov-23 16:37 37.954353 -107.902845 102 9052ft 0kts
04-Nov-23 16:38 37.954353 -107.902845 102 9052ft 0kts
04-Nov-23 16:39 37.954353 -107.902845 102 9052ft 0kts
04-Nov-23 16:40 37.954353 -107.902845 102 9052ft 0kts
04-Nov-23 16:41 37.954353 -107.902845 102 9052ft 0kts
04-Nov-23 16:42 37.954353 -107.902845 102 9052ft 0kts
04-Nov-23 16:43 37.954353 -107.902845 102 9052ft 0kts
04-Nov-23 16:44 37.954159 -107.902401 137 9054ft 8kts
04-Nov-23 16:45 37.952346 -107.896808 141 9069ft 0kts
04-Nov-23 16:46 37.952342 -107.896804 141 9069ft 0kts
04-Nov-23 16:47 37.951985 -107.900039 285 9055ft 74kts
04-Nov-23 16:48 37.967397 -107.962423 286 11708ft 248kts
04-Nov-23 16:49 37.993049 -108.060511 287 15985ft 350kts
04-Nov-23 16:49 38.021127 -108.164260 288 15993ft 366kts
04-Nov-23 16:50 38.026426 -108.296657 255 20601ft 393kts
04-Nov-23 16:51 37.982231 -108.428611 248 23251ft 414kts
04-Nov-23 16:53 37.928706 -108.584733 247 23239ft 414kts
04-Nov-23 16:54 37.882305 -108.719169 247 25401ft 424kts
04-Nov-23 16:54 37.841695 -108.836462 247 28127ft 446kts
04-Nov-23 16:55 37.776931 -108.974083 228 31076ft 475kts
04-Nov-23 16:56 37.684478 -109.097836 228 33477ft 493kts
04-Nov-23 16:57 37.589984 -109.223908 228 33990ft 492kts
04-Nov-23 16:59 37.484795 -109.363618 229 36022ft 445kts
04-Nov-23 16:59 37.415066 -109.456018 229 37634ft 440kts
04-Nov-23 17:00 37.329401 -109.569043 230 38916ft 451kts
04-Nov-23 17:01 37.241926 -109.684041 230 39765ft 459kts
04-Nov-23 17:02 37.154067 -109.799096 230 41024ft 454kts
04-Nov-23 17:03 37.065974 -109.914118 230 41682ft 460kts
04-Nov-23 17:04 36.986332 -110.038527 248 42227ft 456kts
04-Nov-23 17:05 36.934897 -110.182653 249 42972ft 454kts
04-Nov-23 17:06 36.882978 -110.327551 249 43168ft 458kts
04-Nov-23 17:07 36.830819 -110.472454 249 43167ft 459kts
04-Nov-23 17:08 36.778242 -110.617788 249 43158ft 457kts
04-Nov-23 17:09 36.725750 -110.762293 249 43155ft 459kts
04-Nov-23 17:10 36.672852 -110.907154 249 43145ft 459kts
04-Nov-23 17:11 36.619736 -111.051943 249 43140ft 460kts
04-Nov-23 17:12 36.566300 -111.196942 249 43146ft 461kts
04-Nov-23 17:13 36.512720 -111.341662 249 43162ft 459kts
04-Nov-23 17:14 36.459410 -111.485771 252 43152ft 459kts
04-Nov-23 17:15 36.415572 -111.634104 254 43177ft 458kts
04-Nov-23 17:16 36.371749 -111.782130 254 43177ft 456kts
04-Nov-23 17:17 36.327569 -111.930390 254 43195ft 459kts
04-Nov-23 17:18 36.283065 -112.078923 254 43213ft 458kts
04-Nov-23 17:19 36.238434 -112.227121 254 43238ft 460kts
04-Nov-23 17:20 36.193726 -112.374808 253 43227ft 458kts
04-Nov-23 17:21 36.148691 -112.522740 253 43164ft 459kts
04-Nov-23 17:22 36.103394 -112.670749 254 43149ft 459kts
04-Nov-23 17:23 36.058083 -112.818054 254 43150ft 459kts
04-Nov-23 17:24 36.012633 -112.965091 254 43136ft 456kts
04-Nov-23 17:25 35.967321 -113.110939 254 43125ft 457kts
04-Nov-23 17:26 35.921506 -113.257610 254 43120ft 456kts
04-Nov-23 17:27 35.875821 -113.403150 254 43100ft 453kts
04-Nov-23 17:28 35.830174 -113.547940 254 43089ft 453kts
04-Nov-23 17:29 35.784533 -113.692133 254 43079ft 452kts
04-Nov-23 17:30 35.738785 -113.835847 254 43073ft 450kts
04-Nov-23 17:31 35.693027 -113.978932 254 43077ft 450kts
04-Nov-23 17:32 35.646980 -114.122240 254 43077ft 448kts
04-Nov-23 17:33 35.601227 -114.263966 254 43080ft 448kts
04-Nov-23 17:34 35.554975 -114.406505 254 43086ft 448kts
04-Nov-23 17:35 35.509040 -114.547416 254 43078ft 444kts
04-Nov-23 17:36 35.463011 -114.687961 254 43074ft 444kts
04-Nov-23 17:37 35.416739 -114.828588 254 43089ft 445kts
04-Nov-23 17:38 35.371758 -114.969370 257 43114ft 440kts
04-Nov-23 17:39 35.331079 -115.110488 257 43113ft 440kts
04-Nov-23 17:40 35.290098 -115.251884 257 43131ft 439kts
04-Nov-23 17:41 35.249068 -115.392710 256 43136ft 439kts
04-Nov-23 17:42 35.208040 -115.532899 256 43136ft 438kts
04-Nov-23 17:43 35.166939 -115.672512 256 41555ft 432kts
04-Nov-23 17:44 35.126063 -115.808085 251 38194ft 423kts
04-Nov-23 17:45 35.066225 -115.929266 244 35219ft 406kts
04-Nov-23 17:46 35.007996 -116.043706 243 32382ft 386kts
04-Nov-23 17:47 34.952702 -116.152123 241 29758ft 376kts
04-Nov-23 17:48 34.902865 -116.260251 247 27090ft 355kts
04-Nov-23 17:49 34.861470 -116.366544 246 24748ft 341kts
04-Nov-23 17:50 34.821571 -116.469075 245 23850ft 337kts
04-Nov-23 17:51 34.785943 -116.572897 260 23048ft 328kts
04-Nov-23 17:52 34.775206 -116.683141 263 22250ft 327kts
04-Nov-23 17:53 34.764628 -116.791990 263 22105ft 323kts
04-Nov-23 17:54 34.753887 -116.900762 263 22100ft 326kts
04-Nov-23 17:55 34.742822 -117.010081 263 22091ft 324kts
04-Nov-23 17:56 34.731714 -117.118865 263 22113ft 325kts
04-Nov-23 17:57 34.720456 -117.228195 263 21710ft 328kts
04-Nov-23 17:58 34.709225 -117.336347 263 20453ft 318kts
04-Nov-23 17:59 34.698212 -117.441605 262 19209ft 312kts
04-Nov-23 18:00 34.687219 -117.545294 262 17925ft 306kts
04-Nov-23 18:01 34.676341 -117.647106 262 16576ft 300kts
04-Nov-23 18:02 34.665828 -117.746484 262 15356ft 294kts
04-Nov-23 18:03 34.655399 -117.844112 262 14219ft 288kts
04-Nov-23 18:04 34.645060 -117.939359 262 13065ft 282kts
04-Nov-23 18:05 34.634754 -118.033336 262 11957ft 279kts
04-Nov-23 18:06 34.617859 -118.124656 255 10850ft 275kts
04-Nov-23 18:07 34.598083 -118.213699 254 9739ft 271kts
04-Nov-23 18:08 34.578507 -118.301396 254 8657ft 267kts
04-Nov-23 18:09 34.559213 -118.387498 254 7990ft 263kts
04-Nov-23 18:10 34.536520 -118.472739 236 7370ft 266kts
04-Nov-23 18:11 34.475165 -118.518200 199 6059ft 260kts
04-Nov-23 18:12 34.411080 -118.509590 175 5366ft 209kts
04-Nov-23 18:13 34.359617 -118.504503 177 4131ft 143kts
04-Nov-23 18:14 34.322473 -118.500544 175 2964ft 129kts
04-Nov-23 18:15 34.286901 -118.497598 175 2430ft 130kts
04-Nov-23 18:16 34.250237 -118.494180 174 1615ft 130kts
04-Nov-23 18:17 34.214110 -118.490785 175 806ft 125kts
04-Nov-23 18:18 34.202605 -118.490610 257 759ft 0kts
04-Nov-23 18:19 34.202784 -118.491000 341 757ft 9kts
04-Nov-23 18:20 34.203041 -118.491801 270 761ft 0kts

Navigation Log

Ident Type
Flight plan parsing failed, navigation log unavailable